createdAt,value
2018-04-09T00:01:30.302Z,7.70
2018-04-09T00:03:58.396Z,7.70
2018-04-09T00:06:27.170Z,7.70
2018-04-09T00:08:55.272Z,7.70
2018-04-09T00:11:23.378Z,7.70
2018-04-09T00:13:51.500Z,7.70
2018-04-09T00:16:19.602Z,7.70
2018-04-09T00:18:49.618Z,7.70
2018-04-09T00:21:17.736Z,7.60
2018-04-09T00:23:46.173Z,7.60
2018-04-09T00:26:14.305Z,7.60
2018-04-09T00:28:43.388Z,7.60
2018-04-09T00:31:11.677Z,7.60
2018-04-09T00:33:39.899Z,7.60
2018-04-09T00:36:08.086Z,7.60
2018-04-09T00:38:36.271Z,7.60
2018-04-09T00:41:04.391Z,7.60
2018-04-09T00:43:32.494Z,7.60
2018-04-09T00:46:01.131Z,7.60
2018-04-09T00:48:29.683Z,7.50
2018-04-09T00:51:01.837Z,7.50
2018-04-09T00:53:47.788Z,7.50
2018-04-09T00:56:15.908Z,7.40
2018-04-09T00:58:44.038Z,7.40
2018-04-09T01:01:12.173Z,7.40
2018-04-09T01:03:40.272Z,7.40
2018-04-09T01:06:08.375Z,7.50
2018-04-09T01:08:36.497Z,7.50
2018-04-09T01:11:04.598Z,7.50
2018-04-09T01:13:33.538Z,7.50
2018-04-09T01:16:01.661Z,7.50
2018-04-09T01:18:29.763Z,7.40
2018-04-09T01:20:57.862Z,7.40
2018-04-09T01:23:29.882Z,7.40
2018-04-09T01:25:57.970Z,7.40
2018-04-09T01:28:26.859Z,7.30
2018-04-09T01:30:54.964Z,7.30
2018-04-09T01:33:23.628Z,7.30
2018-04-09T01:35:51.738Z,7.30
2018-04-09T01:38:19.834Z,7.30
2018-04-09T01:40:48.244Z,7.30
2018-04-09T01:43:16.360Z,7.30
2018-04-09T01:45:44.464Z,7.30
2018-04-09T01:48:12.668Z,7.20
2018-04-09T01:50:40.914Z,7.20
2018-04-09T01:53:09.135Z,7.20
2018-04-09T01:55:37.257Z,7.20
2018-04-09T01:58:05.750Z,7.20
2018-04-09T02:00:33.887Z,7.10
2018-04-09T02:03:02.594Z,7.10
2018-04-09T02:05:30.709Z,7.10
2018-04-09T02:07:58.841Z,7.10
2018-04-09T02:10:27.159Z,7.10
2018-04-09T02:12:59.720Z,7.00
2018-04-09T02:15:28.619Z,7.00
2018-04-09T02:17:56.755Z,7.00
2018-04-09T02:20:25.587Z,7.00
2018-04-09T02:22:53.674Z,7.00
2018-04-09T02:25:21.796Z,7.00
2018-04-09T02:27:49.890Z,7.00
2018-04-09T02:30:18.007Z,7.00
2018-04-09T02:32:46.119Z,7.00
2018-04-09T02:35:14.589Z,6.90
2018-04-09T02:37:42.698Z,6.90
2018-04-09T02:40:10.836Z,6.90
2018-04-09T02:42:39.020Z,6.90
2018-04-09T02:45:07.171Z,6.90
2018-04-09T02:47:35.426Z,6.90
2018-04-09T02:50:03.621Z,6.90
2018-04-09T02:52:31.743Z,6.90
2018-04-09T02:54:59.833Z,6.90
2018-04-09T02:57:27.950Z,6.90
2018-04-09T02:59:56.042Z,6.90
2018-04-09T03:02:24.173Z,6.90
2018-04-09T03:04:52.279Z,6.80
2018-04-09T03:07:20.504Z,6.80
2018-04-09T03:09:48.719Z,6.80
2018-04-09T03:12:16.936Z,6.90
2018-04-09T03:14:45.237Z,6.80
2018-04-09T03:17:13.469Z,6.80
2018-04-09T03:19:41.637Z,6.80
2018-04-09T03:22:09.897Z,6.80
2018-04-09T03:24:38.075Z,6.80
2018-04-09T03:27:06.183Z,6.80
2018-04-09T03:29:34.671Z,6.80
2018-04-09T03:32:02.880Z,6.80
2018-04-09T03:34:31.003Z,6.80
2018-04-09T03:36:59.130Z,6.80
2018-04-09T03:39:27.698Z,6.80
2018-04-09T03:41:55.841Z,6.80
2018-04-09T03:44:24.267Z,6.80
2018-04-09T03:46:52.375Z,6.80
2018-04-09T03:49:21.248Z,6.70
2018-04-09T03:51:49.384Z,6.70
2018-04-09T03:54:17.494Z,6.70
2018-04-09T03:56:45.625Z,6.70
2018-04-09T03:59:13.748Z,6.70
2018-04-09T04:01:41.841Z,6.70
2018-04-09T04:04:09.934Z,6.70
2018-04-09T04:06:38.041Z,6.70
2018-04-09T04:09:06.170Z,6.70
2018-04-09T04:11:34.252Z,6.70
2018-04-09T04:14:02.397Z,6.70
2018-04-09T04:16:48.230Z,6.70
2018-04-09T04:19:34.090Z,6.70
2018-04-09T04:22:02.173Z,6.70
2018-04-09T04:24:34.474Z,6.70
2018-04-09T04:27:03.329Z,6.70
2018-04-09T04:29:32.018Z,6.60
2018-04-09T04:32:00.105Z,6.60
2018-04-09T04:34:29.068Z,6.60
2018-04-09T04:36:57.362Z,6.60
2018-04-09T04:39:25.843Z,6.70
2018-04-09T04:41:53.964Z,6.70
2018-04-09T04:44:22.091Z,6.70
2018-04-09T04:46:50.314Z,6.60
2018-04-09T04:49:18.637Z,6.70
2018-04-09T04:51:46.863Z,6.70
2018-04-09T04:54:15.041Z,6.70
2018-04-09T04:56:43.577Z,6.70
2018-04-09T04:59:11.709Z,6.70
2018-04-09T05:01:39.857Z,6.70
2018-04-09T05:04:08.461Z,6.80
2018-04-09T05:06:37.495Z,6.80
2018-04-09T05:09:06.556Z,6.80
2018-04-09T05:11:34.729Z,6.90
2018-04-09T05:14:02.941Z,6.90
2018-04-09T05:16:31.119Z,6.90
2018-04-09T05:18:59.225Z,7.00
2018-04-09T05:21:27.371Z,7.00
2018-04-09T05:23:55.456Z,7.10
2018-04-09T05:26:23.570Z,7.10
2018-04-09T05:28:51.676Z,7.10
2018-04-09T05:31:20.083Z,7.20
2018-04-09T05:33:48.187Z,7.20
2018-04-09T05:36:17.053Z,7.30
2018-04-09T05:38:45.158Z,7.30
2018-04-09T05:41:13.284Z,7.40
2018-04-09T05:43:42.157Z,7.50
2018-04-09T05:46:10.336Z,7.60
2018-04-09T05:48:38.445Z,7.60
2018-04-09T05:51:06.522Z,7.70
2018-04-09T05:53:37.278Z,7.80
2018-04-09T05:56:05.382Z,7.90
2018-04-09T05:58:33.515Z,8.00
2018-04-09T06:01:01.619Z,8.00
2018-04-09T06:03:29.739Z,8.10
2018-04-09T06:05:57.837Z,8.20
2018-04-09T06:08:26.498Z,8.20
2018-04-09T06:10:54.667Z,8.30
2018-04-09T06:13:22.759Z,8.40
2018-04-09T06:15:50.869Z,8.50
2018-04-09T06:18:18.971Z,8.50
2018-04-09T06:20:47.997Z,8.60
2018-04-09T06:23:16.424Z,8.70
2018-04-09T06:25:44.502Z,8.80
2018-04-09T06:28:12.644Z,8.90
2018-04-09T06:30:40.749Z,9.10
2018-04-09T06:33:09.616Z,9.20
2018-04-09T06:35:37.723Z,9.30
2018-04-09T06:38:05.848Z,9.50
2018-04-09T06:40:33.931Z,9.70
2018-04-09T06:43:02.031Z,9.80
2018-04-09T06:45:30.155Z,10.00
2018-04-09T06:47:58.337Z,10.10
2018-04-09T06:50:26.557Z,10.30
2018-04-09T06:52:55.940Z,10.40
2018-04-09T06:55:24.093Z,10.60
2018-04-09T06:57:52.369Z,10.70
2018-04-09T07:00:20.549Z,10.90
2018-04-09T07:02:48.732Z,11.00
2018-04-09T07:05:16.840Z,11.20
2018-04-09T07:07:44.965Z,11.30
2018-04-09T07:10:13.060Z,11.50
2018-04-09T07:12:41.182Z,11.60
2018-04-09T07:15:09.272Z,11.80
2018-04-09T07:17:38.798Z,12.00
2018-04-09T07:20:06.885Z,12.10
2018-04-09T07:22:34.978Z,12.30
2018-04-09T07:25:03.097Z,12.40
2018-04-09T07:27:31.292Z,12.60
2018-04-09T07:29:59.422Z,12.80
2018-04-09T07:32:27.516Z,13.00
2018-04-09T07:34:55.643Z,13.10
2018-04-09T07:37:23.742Z,13.30
2018-04-09T07:39:51.867Z,13.40
2018-04-09T07:42:20.001Z,13.60
2018-04-09T07:44:48.115Z,13.80
2018-04-09T07:47:16.281Z,13.90
2018-04-09T07:49:44.893Z,14.10
2018-04-09T07:52:13.012Z,14.30
2018-04-09T07:54:41.127Z,14.40
2018-04-09T07:57:09.267Z,14.60
2018-04-09T07:59:37.461Z,14.70
2018-04-09T08:02:06.361Z,14.90
2018-04-09T08:04:34.453Z,15.10
2018-04-09T08:07:02.563Z,15.20
2018-04-09T08:09:30.667Z,15.40
2018-04-09T08:11:58.764Z,15.60
2018-04-09T08:14:26.921Z,15.70
2018-04-09T08:16:55.094Z,15.90
2018-04-09T08:19:23.278Z,16.00
2018-04-09T08:21:51.974Z,16.20
2018-04-09T08:24:20.073Z,16.40
2018-04-09T08:26:48.409Z,16.50
2018-04-09T08:29:16.535Z,16.60
2018-04-09T08:31:44.667Z,16.80
2018-04-09T08:34:12.840Z,16.90
2018-04-09T08:36:40.953Z,17.00
2018-04-09T08:39:09.041Z,17.10
2018-04-09T08:41:37.146Z,17.20
2018-04-09T08:44:05.272Z,17.20
2018-04-09T08:46:33.374Z,17.30
2018-04-09T08:49:01.480Z,17.40
2018-04-09T08:51:29.641Z,17.50
2018-04-09T08:53:57.766Z,17.50
2018-04-09T08:56:25.890Z,17.60
2018-04-09T08:58:54.027Z,17.70
2018-04-09T09:01:22.116Z,17.90
2018-04-09T09:03:50.224Z,18.00
2018-04-09T09:06:18.314Z,18.10
2018-04-09T09:08:46.406Z,18.20
2018-04-09T09:11:14.518Z,18.40
2018-04-09T09:13:42.624Z,18.50
2018-04-09T09:16:10.767Z,18.60
2018-04-09T09:18:38.853Z,18.80
2018-04-09T09:21:07.738Z,18.90
2018-04-09T09:23:35.839Z,19.10
2018-04-09T09:26:03.941Z,19.20
2018-04-09T09:28:32.969Z,19.40
2018-04-09T09:31:01.076Z,19.50
2018-04-09T09:33:29.201Z,19.70
2018-04-09T09:35:57.293Z,19.80
2018-04-09T09:38:25.428Z,19.80
2018-04-09T09:40:53.582Z,19.90
2018-04-09T09:43:21.690Z,20.00
2018-04-09T09:45:49.782Z,20.10
2018-04-09T09:48:18.734Z,20.20
2018-04-09T09:50:47.604Z,20.30
2018-04-09T09:53:15.696Z,20.50
2018-04-09T09:55:43.810Z,20.80
2018-04-09T09:58:11.898Z,21.10
2018-04-09T10:00:45.540Z,21.40
2018-04-09T10:03:13.665Z,21.80
2018-04-09T10:05:41.793Z,22.10
2018-04-09T10:08:09.886Z,22.40
2018-04-09T10:10:38.050Z,22.70
2018-04-09T10:13:06.156Z,23.00
2018-04-09T10:15:34.256Z,23.20
2018-04-09T10:18:02.392Z,23.40
2018-04-09T10:20:30.553Z,23.50
2018-04-09T10:22:58.688Z,23.60
2018-04-09T10:25:26.800Z,23.70
2018-04-09T10:27:54.896Z,23.70
2018-04-09T10:30:23.732Z,23.70
2018-04-09T10:32:51.837Z,23.60
2018-04-09T10:35:20.008Z,23.60
2018-04-09T10:37:48.206Z,23.60
2018-04-09T10:40:17.083Z,23.60
2018-04-09T10:42:45.172Z,23.60
2018-04-09T10:45:13.286Z,23.70
2018-04-09T10:47:41.469Z,23.90
2018-04-09T10:50:09.552Z,24.10
2018-04-09T10:52:37.716Z,24.40
2018-04-09T10:55:05.893Z,24.60
2018-04-09T10:57:34.006Z,25.00
2018-04-09T11:00:03.591Z,25.30
2018-04-09T11:02:32.277Z,25.60
2018-04-09T11:05:00.371Z,25.70
2018-04-09T11:07:28.489Z,25.90
2018-04-09T11:09:56.595Z,26.10
2018-04-09T11:12:24.687Z,26.40
2018-04-09T11:14:52.836Z,26.60
2018-04-09T11:17:20.921Z,26.80
2018-04-09T11:19:49.077Z,27.00
2018-04-09T11:22:17.176Z,27.20
2018-04-09T11:24:46.104Z,27.30
2018-04-09T11:27:14.251Z,27.40
2018-04-09T11:29:42.411Z,27.40
2018-04-09T11:32:11.304Z,27.40
2018-04-09T11:34:40.168Z,27.30
2018-04-09T11:37:08.345Z,27.30
2018-04-09T11:39:36.513Z,27.20
2018-04-09T11:42:04.604Z,27.10
2018-04-09T11:44:33.499Z,26.90
2018-04-09T11:47:02.199Z,26.70
2018-04-09T11:49:30.321Z,26.50
2018-04-09T11:51:58.430Z,26.30
2018-04-09T11:54:26.522Z,26.10
2018-04-09T11:56:54.663Z,25.90
2018-04-09T11:59:22.773Z,25.80
2018-04-09T12:01:50.888Z,25.60
2018-04-09T12:04:19.153Z,25.30
2018-04-09T12:06:47.262Z,25.10
2018-04-09T12:09:15.405Z,25.00
2018-04-09T12:11:43.598Z,24.80
2018-04-09T12:14:11.844Z,24.70
2018-04-09T12:16:40.050Z,24.60
2018-04-09T12:19:08.304Z,24.50
2018-04-09T12:21:36.522Z,24.30
2018-04-09T12:24:04.967Z,24.20
2018-04-09T12:26:33.121Z,24.00
2018-04-09T12:29:01.242Z,23.90
2018-04-09T12:31:30.138Z,23.90
2018-04-09T12:33:58.995Z,23.80
2018-04-09T12:36:27.895Z,23.70
2018-04-09T12:38:55.990Z,23.70
2018-04-09T12:41:24.848Z,23.60
2018-04-09T12:43:52.956Z,23.60
2018-04-09T12:46:21.099Z,23.60
2018-04-09T12:48:49.210Z,23.60
2018-04-09T12:51:17.301Z,23.60
2018-04-09T12:53:45.450Z,23.60
2018-04-09T12:56:13.561Z,23.70
2018-04-09T12:58:41.655Z,23.70
2018-04-09T13:03:36.970Z,24.00
2018-04-09T13:06:05.373Z,24.20
2018-04-09T13:08:33.505Z,24.50
2018-04-09T13:11:01.599Z,24.70
2018-04-09T13:13:29.739Z,25.10
2018-04-09T13:15:57.865Z,25.50
2018-04-09T13:18:27.596Z,26.10
2018-04-09T13:20:55.687Z,26.80
2018-04-09T13:23:23.801Z,27.60
2018-04-09T13:25:51.927Z,28.30
2018-04-09T13:28:20.079Z,29.10
2018-04-09T13:30:49.769Z,30.00
2018-04-09T13:33:17.873Z,31.00
2018-04-09T13:35:46.016Z,32.10
2018-04-09T13:38:14.173Z,33.10
2018-04-09T13:40:42.290Z,34.00
2018-04-09T13:43:10.433Z,34.80
2018-04-09T13:45:38.535Z,35.40
2018-04-09T13:48:06.731Z,36.00
2018-04-09T13:50:35.093Z,36.50
2018-04-09T13:53:03.279Z,37.10
2018-04-09T13:55:31.408Z,37.60
2018-04-09T13:57:59.548Z,37.90
2018-04-09T14:00:27.640Z,38.20
2018-04-09T14:02:55.757Z,38.30
2018-04-09T14:05:24.332Z,38.30
2018-04-09T14:07:52.420Z,38.10
2018-04-09T14:10:20.544Z,37.90
2018-04-09T14:12:48.663Z,38.00
2018-04-09T14:15:16.774Z,38.30
2018-04-09T14:17:44.935Z,38.40
2018-04-09T14:20:13.045Z,38.30
2018-04-09T14:22:41.763Z,38.60
2018-04-09T14:25:10.100Z,39.00
2018-04-09T14:27:38.239Z,39.40
2018-04-09T14:30:06.407Z,39.70
2018-04-09T14:32:34.594Z,39.70
2018-04-09T14:35:02.744Z,39.80
2018-04-09T14:37:30.850Z,40.10
2018-04-09T14:39:59.074Z,40.70
2018-04-09T14:42:27.666Z,41.30
2018-04-09T14:44:55.880Z,41.90
2018-04-09T14:47:24.064Z,42.40
2018-04-09T14:49:52.304Z,42.80
2018-04-09T14:52:20.416Z,43.20
2018-04-09T14:54:49.103Z,43.50
2018-04-09T14:57:17.498Z,43.70
2018-04-09T14:59:45.610Z,44.00
2018-04-09T15:02:13.726Z,43.90
2018-04-09T15:04:41.852Z,43.80
2018-04-09T15:07:10.026Z,43.60
2018-04-09T15:09:38.111Z,43.30
2018-04-09T15:12:06.869Z,43.00
2018-04-09T15:14:35.797Z,42.70
2018-04-09T15:17:04.013Z,42.30
2018-04-09T15:19:32.147Z,41.90
2018-04-09T15:22:00.239Z,41.60
2018-04-09T15:24:28.349Z,41.20
2018-04-09T15:26:56.440Z,40.80
2018-04-09T15:29:25.136Z,40.30
2018-04-09T15:31:53.270Z,39.70
2018-04-09T15:34:21.381Z,39.00
2018-04-09T15:36:50.058Z,38.30
2018-04-09T15:39:18.206Z,37.70
2018-04-09T15:41:46.333Z,37.20
2018-04-09T15:44:15.203Z,36.70
2018-04-09T15:46:43.329Z,36.10
2018-04-09T15:49:11.427Z,35.30
2018-04-09T15:51:39.601Z,34.70
2018-04-09T15:54:07.731Z,34.10
2018-04-09T15:56:35.842Z,33.50
2018-04-09T15:59:04.725Z,32.80
2018-04-09T16:01:32.821Z,32.10
2018-04-09T16:04:00.927Z,31.40
2018-04-09T16:06:29.252Z,30.70
2018-04-09T16:08:57.445Z,30.10
2018-04-09T16:11:26.406Z,29.50
2018-04-09T16:13:54.513Z,28.90
2018-04-09T16:16:22.635Z,28.40
2018-04-09T16:18:50.759Z,27.90
2018-04-09T16:21:18.881Z,27.30
2018-04-09T16:23:46.984Z,26.80
2018-04-09T16:26:15.143Z,26.40
2018-04-09T16:28:44.029Z,26.00
2018-04-09T16:31:12.125Z,25.70
2018-04-09T16:33:40.257Z,25.40
2018-04-09T16:36:09.212Z,25.10
2018-04-09T16:38:37.311Z,24.80
2018-04-09T16:41:05.415Z,24.50
2018-04-09T16:43:33.549Z,24.30
2018-04-09T16:46:01.649Z,24.00
2018-04-09T16:48:29.747Z,23.80
2018-04-09T16:50:57.855Z,23.60
2018-04-09T16:53:25.963Z,23.40
2018-04-09T16:55:54.089Z,23.30
2018-04-09T16:58:22.230Z,23.10
2018-04-09T17:00:51.219Z,23.00
2018-04-09T17:03:19.327Z,22.80
2018-04-09T17:05:47.450Z,22.70
2018-04-09T17:08:15.564Z,22.60
2018-04-09T17:10:43.674Z,22.40
2018-04-09T17:13:11.783Z,22.30
2018-04-09T17:15:39.961Z,22.20
2018-04-09T17:18:08.142Z,22.10
2018-04-09T17:20:36.418Z,21.90
2018-04-09T17:23:04.693Z,21.90
2018-04-09T17:25:32.842Z,21.70
2018-04-09T17:28:01.117Z,21.60
2018-04-09T17:30:29.291Z,21.50
2018-04-09T17:32:57.396Z,21.40
2018-04-09T17:35:25.517Z,21.30
2018-04-09T17:37:53.626Z,21.20
2018-04-09T17:40:21.751Z,21.10
2018-04-09T17:42:49.863Z,21.00
2018-04-09T17:45:18.751Z,20.80
2018-04-09T17:47:49.602Z,20.70
2018-04-09T17:50:17.774Z,20.60
2018-04-09T17:52:46.651Z,20.50
2018-04-09T17:55:14.803Z,20.30
2018-04-09T17:57:43.134Z,20.20
2018-04-09T18:00:11.341Z,20.10
2018-04-09T18:02:39.570Z,20.00
2018-04-09T18:05:07.789Z,19.90
2018-04-09T18:07:35.958Z,19.80
2018-04-09T18:10:04.071Z,19.60
2018-04-09T18:12:32.267Z,19.40
2018-04-09T18:15:00.421Z,19.30
2018-04-09T18:17:28.519Z,19.20
2018-04-09T18:19:56.672Z,19.00
2018-04-09T18:22:25.626Z,18.80
2018-04-09T18:24:53.762Z,18.50
2018-04-09T18:27:21.858Z,18.30
2018-04-09T18:29:49.973Z,18.10
2018-04-09T18:32:18.065Z,17.90
2018-04-09T18:34:46.182Z,17.60
2018-04-09T18:37:14.368Z,17.40
2018-04-09T18:39:42.492Z,17.20
2018-04-09T18:42:10.639Z,17.00
2018-04-09T18:44:38.846Z,16.80
2018-04-09T18:47:07.812Z,16.60
2018-04-09T18:49:35.934Z,16.50
2018-04-09T18:52:04.698Z,16.40
2018-04-09T18:54:32.815Z,16.30
2018-04-09T18:57:01.939Z,16.20
2018-04-09T18:59:30.172Z,16.20
2018-04-09T19:01:58.416Z,16.10
2018-04-09T19:04:26.618Z,16.00
2018-04-09T19:06:54.751Z,15.90
2018-04-09T19:09:23.664Z,15.80
2018-04-09T19:11:51.780Z,15.70
2018-04-09T19:14:19.875Z,15.60
2018-04-09T19:16:49.056Z,15.50
2018-04-09T19:19:17.207Z,15.40
2018-04-09T19:21:45.382Z,15.20
2018-04-09T19:24:13.703Z,15.10
2018-04-09T19:26:41.897Z,15.00
2018-04-09T19:29:10.073Z,14.90
2018-04-09T19:31:38.184Z,14.80
2018-04-09T19:34:06.353Z,14.70
2018-04-09T19:36:39.979Z,14.60
2018-04-09T19:39:13.777Z,14.50
2018-04-09T19:42:05.363Z,14.40
2018-04-09T19:44:33.475Z,14.30
2018-04-09T19:47:24.969Z,14.20
2018-04-09T19:49:53.088Z,14.10
2018-04-09T20:05:17.268Z,12.80
2018-04-09T20:07:45.388Z,12.60
2018-04-09T20:10:13.560Z,12.60
2018-04-09T20:12:41.654Z,12.50
2018-04-09T20:15:09.772Z,12.50
2018-04-09T20:17:37.883Z,12.50
2018-04-09T20:20:06.046Z,12.50
2018-04-09T20:22:34.171Z,12.50
2018-04-09T20:25:03.245Z,12.50
2018-04-09T20:27:31.470Z,12.50
2018-04-09T20:29:59.963Z,12.50
2018-04-09T20:32:28.110Z,12.50
2018-04-09T20:34:56.462Z,12.40
2018-04-09T20:37:24.575Z,12.40
2018-04-09T20:39:52.739Z,12.40
2018-04-09T20:42:20.961Z,12.40
2018-04-09T20:44:49.259Z,12.30
2018-04-09T20:47:18.140Z,12.30
2018-04-09T20:49:46.260Z,12.40
2018-04-09T20:52:14.863Z,12.50
2018-04-09T20:54:42.970Z,12.70
2018-04-09T20:57:11.086Z,12.80
2018-04-09T20:59:42.989Z,12.90
2018-04-09T21:02:11.110Z,13.00
2018-04-09T21:04:39.243Z,13.10
2018-04-09T21:07:07.375Z,13.20
2018-04-09T21:09:35.545Z,13.30
2018-04-09T21:12:03.675Z,13.40
2018-04-09T21:14:31.811Z,13.50
2018-04-09T21:16:59.966Z,13.60
2018-04-09T21:19:28.074Z,13.60
2018-04-09T21:21:56.173Z,13.70
2018-04-09T21:24:24.289Z,13.70
2018-04-09T21:26:52.436Z,13.80
2018-04-09T21:29:20.576Z,13.80
2018-04-09T21:31:48.813Z,13.80
2018-04-09T21:34:17.216Z,13.80
2018-04-09T21:36:45.391Z,13.80
2018-04-09T21:39:13.530Z,13.70
2018-04-09T21:41:41.844Z,13.70
2018-04-09T21:44:10.091Z,13.60
2018-04-09T21:46:38.630Z,13.60
2018-04-09T21:49:07.518Z,13.60
2018-04-09T21:51:35.614Z,13.60
2018-04-09T21:54:03.741Z,13.60
2018-04-09T21:56:31.876Z,13.50
2018-04-09T21:59:00.035Z,13.50
2018-04-09T22:01:28.880Z,13.50
2018-04-09T22:03:57.009Z,13.40
2018-04-09T22:06:25.302Z,13.40
2018-04-09T22:08:53.476Z,13.30
2018-04-09T22:11:22.420Z,13.30
2018-04-09T22:13:50.514Z,13.20
2018-04-09T22:16:18.622Z,13.20
2018-04-09T22:18:46.741Z,13.10
2018-04-09T22:21:14.889Z,13.00
2018-04-09T22:23:43.773Z,12.80
2018-04-09T22:26:11.894Z,12.70
2018-04-09T22:28:40.037Z,12.50
2018-04-09T22:31:08.140Z,12.40
2018-04-09T22:33:36.263Z,12.20
2018-04-09T22:36:04.362Z,12.10
2018-04-09T22:38:32.512Z,11.90
2018-04-09T22:41:00.692Z,11.70
2018-04-09T22:43:29.598Z,11.60
2018-04-09T22:45:57.752Z,11.40
2018-04-09T22:48:25.868Z,11.30
2018-04-09T22:50:53.998Z,11.20
2018-04-09T22:53:22.136Z,11.10
2018-04-09T22:55:50.242Z,11.00
2018-04-09T22:58:18.337Z,11.00
2018-04-09T23:00:46.462Z,10.90
2018-04-09T23:03:14.592Z,10.90
2018-04-09T23:05:42.709Z,10.90
2018-04-09T23:08:10.825Z,10.90
2018-04-09T23:10:38.926Z,10.90
2018-04-09T23:13:07.051Z,10.90
2018-04-09T23:15:35.936Z,10.80
2018-04-09T23:18:04.053Z,10.80
2018-04-09T23:20:32.425Z,10.70
2018-04-09T23:23:00.534Z,10.60
2018-04-09T23:25:28.651Z,10.50
2018-04-09T23:27:56.779Z,10.50
2018-04-09T23:30:24.890Z,10.50
2018-04-09T23:32:53.021Z,10.40
2018-04-09T23:35:21.160Z,10.50
2018-04-09T23:37:49.362Z,10.50
2018-04-09T23:40:17.597Z,10.50
2018-04-09T23:42:45.714Z,10.50
2018-04-09T23:45:13.876Z,10.50
2018-04-09T23:47:42.008Z,10.60
2018-04-09T23:50:10.124Z,10.60
2018-04-09T23:52:38.251Z,10.50
2018-04-09T23:55:07.108Z,10.60
2018-04-09T23:57:36.445Z,10.60
